createdAt,value
2022-11-24T00:01:34.530Z,97533.69
2022-11-24T00:04:03.971Z,97529.38
2022-11-24T00:06:32.373Z,97516.81
2022-11-24T00:09:00.485Z,97521.59
2022-11-24T00:11:35.174Z,97524.34
2022-11-24T00:14:04.764Z,97532.16
2022-11-24T00:16:34.720Z,97537.44
2022-11-24T00:19:02.908Z,97537.44
2022-11-24T00:22:11.682Z,97529.88
2022-11-24T00:25:52.219Z,97541.03
2022-11-24T00:28:19.774Z,97543.66
2022-11-24T00:30:46.517Z,97546.28
2022-11-24T00:33:13.294Z,97558.63
2022-11-24T00:37:36.550Z,97549.31
2022-11-24T00:40:03.665Z,97549.44
2022-11-24T00:42:30.225Z,97555.16
2022-11-24T00:44:56.864Z,97562.22
2022-11-24T00:49:59.254Z,97549.31
2022-11-24T00:52:26.177Z,97553.63
2022-11-24T00:54:52.785Z,97550.84
2022-11-24T01:00:00.850Z,97552.91
2022-11-24T01:02:27.653Z,97555.53
2022-11-24T01:04:55.695Z,97557.34
2022-11-24T01:07:22.414Z,97564.25
2022-11-24T01:09:49.220Z,97566.06
2022-11-24T01:12:16.403Z,97563.44
2022-11-24T01:14:43.814Z,97566.22
2022-11-24T01:21:14.854Z,97575.81
2022-11-24T01:23:43.117Z,97567.16
2022-11-24T01:27:08.282Z,97585.63
2022-11-24T01:31:52.228Z,97575.44
2022-11-24T01:35:11.084Z,97578.66
2022-11-24T01:38:25.599Z,97572.59
2022-11-24T01:43:52.512Z,97574.34
2022-11-24T01:47:32.913Z,97537.16
2022-11-24T01:50:02.317Z,97583.22
2022-11-24T01:52:34.574Z,97584.09
2022-11-24T01:56:33.287Z,97572.72
2022-11-24T01:59:02.887Z,97590.31
2022-11-24T02:01:31.528Z,97598.22
2022-11-24T02:04:00.035Z,97600.03
2022-11-24T02:15:06.673Z,97612.50
2022-11-24T02:17:33.414Z,97606.25
2022-11-24T02:20:38.425Z,97621.22
2022-11-24T02:23:08.514Z,97603.75
2022-11-24T02:36:13.347Z,97607.34
2022-11-24T02:43:24.851Z,97599.44
2022-11-24T02:45:51.939Z,97608.19
2022-11-24T02:48:18.911Z,97613.44
2022-11-24T02:50:45.676Z,97608.75
2022-11-24T02:53:12.479Z,97607.94
2022-11-24T02:55:39.226Z,97608.75
2022-11-24T02:58:05.898Z,97601.34
2022-11-24T03:00:32.801Z,97602.06
2022-11-24T03:02:59.460Z,97616.44
2022-11-24T03:05:27.105Z,97616.44
2022-11-24T03:07:53.660Z,97613.66
2022-11-24T03:10:20.306Z,97613.66
2022-11-24T03:12:46.911Z,97606.72
2022-11-24T03:15:13.949Z,97611.03
2022-11-24T03:17:40.923Z,97611.84
2022-11-24T03:22:37.327Z,97603.13
2022-11-24T03:25:04.701Z,97612.72
2022-11-24T03:27:31.717Z,97611.03
2022-11-24T03:29:58.374Z,97605.63
2022-11-24T03:32:25.516Z,97604.81
2022-11-24T03:34:52.242Z,97610.91
2022-11-24T03:37:18.962Z,97607.44
2022-11-24T03:39:45.575Z,97608.13
2022-11-24T03:42:12.122Z,97613.41
2022-11-24T03:44:39.167Z,97611.63
2022-11-24T03:47:06.182Z,97616.03
2022-11-24T03:49:33.255Z,97618.66
2022-11-24T03:52:07.799Z,97618.81
2022-11-24T03:54:58.591Z,97596.44
2022-11-24T03:57:25.331Z,97631.03
2022-11-24T03:59:51.922Z,97625.63
2022-11-24T04:02:18.859Z,97627.44
2022-11-24T04:04:53.779Z,97633.53
2022-11-24T04:07:20.535Z,97630.91
2022-11-24T04:09:53.166Z,97628.25
2022-11-24T04:12:41.634Z,97630.91
2022-11-24T04:15:09.191Z,97628.41
2022-11-24T04:17:36.130Z,97626.56
2022-11-24T04:20:03.303Z,97628.25
2022-11-24T04:22:32.711Z,97640.63
2022-11-24T04:24:59.503Z,97640.47
2022-11-24T04:27:26.075Z,97641.31
2022-11-24T04:29:52.795Z,97651.84
2022-11-24T04:32:19.938Z,97648.25
2022-11-24T04:34:46.832Z,97647.44
2022-11-24T04:37:13.576Z,97646.47
2022-11-24T04:39:40.162Z,97653.44
2022-11-24T04:42:06.909Z,97656.06
2022-11-24T04:44:34.196Z,97646.13
2022-11-24T04:47:01.376Z,97656.88
2022-11-24T04:49:28.237Z,97659.53
2022-11-24T04:51:54.910Z,97662.88
2022-11-24T04:54:21.764Z,97648.03
2022-11-24T04:56:52.039Z,97662.03
2022-11-24T04:59:20.014Z,97662.75
2022-11-24T05:01:47.115Z,97666.13
2022-11-24T05:04:15.662Z,97664.44
2022-11-24T05:06:42.434Z,97661.22
2022-11-24T05:09:13.378Z,97652.72
2022-11-24T05:11:40.131Z,97664.03
2022-11-24T05:14:07.003Z,97671.13
2022-11-24T05:16:38.129Z,97669.22
2022-11-24T05:19:05.949Z,97671.72
2022-11-24T05:21:32.955Z,97673.25
2022-11-24T05:24:00.016Z,97671.56
2022-11-24T05:26:27.656Z,97674.13
2022-11-24T05:28:54.599Z,97676.63
2022-11-24T05:31:21.347Z,97671.34
2022-11-24T05:33:47.911Z,97681.88
2022-11-24T05:36:34.484Z,97673.25
2022-11-24T05:39:01.346Z,97683.56
2022-11-24T05:41:27.919Z,97680.94
2022-11-24T05:43:54.483Z,97683.56
2022-11-24T05:46:21.075Z,97692.31
2022-11-24T05:48:47.826Z,97695.91
2022-11-24T05:51:14.550Z,97695.06
2022-11-24T05:53:41.215Z,97702.03
2022-11-24T05:58:23.055Z,97700.59
2022-11-24T06:00:49.914Z,97706.59
2022-11-24T06:03:16.745Z,97708.97
2022-11-24T06:05:47.314Z,97713.41
2022-11-24T06:08:14.209Z,97711.59
2022-11-24T06:10:41.293Z,97721.19
2022-11-24T06:13:08.808Z,97714.38
2022-11-24T06:15:37.560Z,97731.75
2022-11-24T06:18:04.508Z,97723.00
2022-11-24T06:20:32.927Z,97723.00
2022-11-24T06:23:01.046Z,97721.59
2022-11-24T06:25:28.789Z,97723.81
2022-11-24T06:27:56.084Z,97728.28
2022-11-24T06:30:23.094Z,97724.22
2022-11-24T06:32:53.914Z,97739.56
2022-11-24T06:35:20.926Z,97736.91
2022-11-24T06:37:47.445Z,97738.69
2022-11-24T06:40:14.370Z,97736.91
2022-11-24T06:42:41.019Z,97739.66
2022-11-24T06:45:09.528Z,97741.47
2022-11-24T06:47:36.695Z,97741.81
2022-11-24T06:51:22.087Z,97747.81
2022-11-24T06:53:48.717Z,97753.22
2022-11-24T06:56:18.915Z,97753.22
2022-11-24T06:58:48.248Z,97748.06
2022-11-24T07:01:28.983Z,97739.09
2022-11-24T07:03:56.830Z,97753.47
2022-11-24T07:06:25.171Z,97756.34
2022-11-24T07:09:45.333Z,97741.25
2022-11-24T07:12:15.254Z,97757.19
2022-11-24T07:14:41.746Z,97766.06
2022-11-24T07:17:08.543Z,97760.78
2022-11-24T07:19:35.720Z,97765.22
2022-11-24T07:22:02.678Z,97766.31
2022-11-24T07:24:29.418Z,97767.16
2022-11-24T07:26:55.985Z,97768.81
2022-11-24T07:29:22.648Z,97772.53
2022-11-24T07:31:50.070Z,97761.03
2022-11-24T07:34:16.898Z,97771.69
2022-11-24T07:36:45.084Z,97771.47
2022-11-24T07:40:46.561Z,97775.38
2022-11-24T07:43:18.617Z,97769.16
2022-11-24T07:45:54.326Z,97772.50
2022-11-24T07:48:21.187Z,97775.97
2022-11-24T07:50:54.104Z,97772.50
2022-11-24T07:53:22.664Z,97772.50
2022-11-24T07:56:03.143Z,97773.34
2022-11-24T07:58:32.887Z,97771.78
2022-11-24T08:01:08.181Z,97772.28
2022-11-24T08:03:35.937Z,97783.19
2022-11-24T08:08:49.172Z,97785.94
2022-11-24T08:14:31.853Z,97793.84
2022-11-24T08:16:58.955Z,97790.06
2022-11-24T08:21:56.977Z,97794.25
2022-11-24T08:24:23.604Z,97797.84
2022-11-24T08:26:50.094Z,97790.28
2022-11-24T08:29:16.897Z,97800.94
2022-11-24T08:31:43.475Z,97800.81
2022-11-24T08:34:10.779Z,97807.63
2022-11-24T08:36:37.488Z,97806.69
2022-11-24T08:39:04.107Z,97808.00
2022-11-24T08:41:31.246Z,97813.97
2022-11-24T08:43:58.474Z,97807.50
2022-11-24T08:46:25.149Z,97817.78
2022-11-24T08:48:54.655Z,97813.25
2022-11-24T08:51:25.053Z,97810.84
2022-11-24T08:53:59.609Z,97812.88
2022-11-24T08:56:32.206Z,97827.50
2022-11-24T08:58:59.113Z,97821.13
2022-11-24T09:01:27.175Z,97818.50
2022-11-24T09:03:54.633Z,97819.22
2022-11-24T09:06:24.886Z,97822.44
2022-11-24T09:08:53.820Z,97828.44
2022-11-24T09:11:20.435Z,97823.03
2022-11-24T09:13:47.634Z,97827.13
2022-11-24T09:16:26.038Z,97809.97
2022-11-24T09:19:00.971Z,97819.94
2022-11-24T09:21:28.196Z,97817.28
2022-11-24T09:23:55.422Z,97824.00
2022-11-24T09:26:23.575Z,97828.19
2022-11-24T09:28:54.258Z,97828.03
2022-11-24T09:31:22.992Z,97821.81
2022-11-24T09:33:50.267Z,97827.81
2022-11-24T09:36:17.574Z,97826.97
2022-11-24T09:38:44.398Z,97818.34
2022-11-24T09:41:23.348Z,97824.81
2022-11-24T09:43:59.279Z,97826.47
2022-11-24T09:46:44.664Z,97836.06
2022-11-24T09:49:16.631Z,97822.75
2022-11-24T09:51:49.850Z,97824.53
2022-11-24T09:54:21.156Z,97821.88
2022-11-24T09:56:51.530Z,97832.22
2022-11-24T09:59:21.538Z,97831.34
2022-11-24T10:01:49.955Z,97833.03
2022-11-24T10:04:49.048Z,97826.66
2022-11-24T10:07:27.964Z,97824.03
2022-11-24T10:10:25.739Z,97821.28
2022-11-24T10:13:17.174Z,97830.03
2022-11-24T10:16:15.438Z,97821.16
2022-11-24T10:18:54.593Z,97778.66
2022-11-24T10:21:51.437Z,97824.63
2022-11-24T10:24:39.984Z,97827.03
2022-11-24T10:27:17.672Z,97828.69
2022-11-24T10:29:48.083Z,97824.25
2022-11-24T10:32:18.079Z,97836.34
2022-11-24T10:34:46.395Z,97825.19
2022-11-24T10:37:40.663Z,97830.84
2022-11-24T10:40:56.597Z,97825.56
2022-11-24T10:43:12.500Z,97828.06
2022-11-24T10:45:40.293Z,97824.47
2022-11-24T10:48:17.932Z,97834.88
2022-11-24T10:50:45.202Z,97833.06
2022-11-24T10:53:23.162Z,97833.94
2022-11-24T10:55:55.939Z,97827.69
2022-11-24T11:00:50.908Z,97830.19
2022-11-24T11:03:26.511Z,97827.41
2022-11-24T11:06:14.274Z,97830.91
2022-11-24T11:08:41.214Z,97826.44
2022-11-24T11:11:22.050Z,97821.91
2022-11-24T11:14:04.351Z,97820.06
2022-11-24T11:16:46.173Z,97826.22
2022-11-24T11:19:48.976Z,97823.56
2022-11-24T11:22:35.631Z,97828.72
2022-11-24T11:25:35.513Z,97831.34
2022-11-24T11:28:18.871Z,97828.59
2022-11-24T11:31:17.234Z,97831.94
2022-11-24T11:34:03.641Z,97833.72
2022-11-24T11:36:33.053Z,97828.34
2022-11-24T11:39:00.056Z,97822.22
2022-11-24T11:41:32.789Z,97829.03
2022-11-24T11:44:32.482Z,97827.25
2022-11-24T11:47:08.232Z,97832.41
2022-11-24T11:49:38.227Z,97839.47
2022-11-24T11:52:25.806Z,97840.19
2022-11-24T11:55:08.437Z,97836.72
2022-11-24T11:57:46.711Z,97830.47
2022-11-24T12:00:20.203Z,97830.00
2022-11-24T12:03:35.049Z,97828.91
2022-11-24T12:06:43.410Z,97838.25
2022-11-24T12:09:39.812Z,97848.69
2022-11-24T12:12:40.370Z,97838.00
2022-11-24T12:15:16.013Z,97840.63
2022-11-24T12:17:51.979Z,97837.88
2022-11-24T12:20:31.247Z,97837.88
2022-11-24T12:23:06.811Z,97844.81
2022-11-24T12:25:40.717Z,97834.53
2022-11-24T12:28:19.637Z,97842.19
2022-11-24T12:30:57.927Z,97849.16
2022-11-24T12:33:50.942Z,97841.13
2022-11-24T12:36:30.982Z,97839.28
2022-11-24T12:39:14.130Z,97848.03
2022-11-24T12:41:43.834Z,97855.00
2022-11-24T12:44:35.279Z,97845.28
2022-11-24T12:47:17.710Z,97838.00
2022-11-24T12:50:02.845Z,97847.84
2022-11-24T12:52:35.697Z,97847.84
2022-11-24T12:55:03.748Z,97852.16
2022-11-24T12:57:44.640Z,97854.81
2022-11-24T13:00:23.803Z,97849.72
2022-11-24T13:03:12.262Z,97861.78
2022-11-24T13:05:49.773Z,97862.59
2022-11-24T13:08:16.631Z,97867.88
2022-11-24T13:10:58.566Z,97873.16
2022-11-24T13:13:57.083Z,97865.25
2022-11-24T13:16:59.278Z,97871.34
2022-11-24T13:19:17.180Z,97873.16
2022-11-24T13:21:56.764Z,97877.63
2022-11-24T13:24:26.530Z,97880.28
2022-11-24T13:27:15.878Z,97884.69
2022-11-24T13:29:49.929Z,97890.84
2022-11-24T13:32:19.391Z,97897.91
2022-11-24T13:34:46.931Z,97901.41
2022-11-24T13:37:31.667Z,97905.00
2022-11-24T13:40:22.835Z,97900.56
2022-11-24T13:43:00.340Z,97899.09
2022-11-24T13:45:40.535Z,97905.97
2022-11-24T13:48:19.548Z,97917.38
2022-11-24T13:50:55.949Z,97920.88
2022-11-24T13:53:35.472Z,97930.59
2022-11-24T13:56:14.137Z,97935.03
2022-11-24T13:58:50.898Z,97924.47
2022-11-24T14:01:26.275Z,97929.75
2022-11-24T14:04:31.426Z,97935.03
2022-11-24T14:07:14.056Z,97938.50
2022-11-24T14:09:47.972Z,97944.66
2022-11-24T14:12:23.125Z,97948.25
2022-11-24T14:14:51.914Z,97949.94
2022-11-24T14:17:18.334Z,97958.81
2022-11-24T14:19:47.855Z,97959.78
2022-11-24T14:22:21.025Z,97964.94
2022-11-24T14:24:56.979Z,97956.38
2022-11-24T14:27:34.067Z,97971.91
2022-11-24T14:30:16.778Z,97979.00
2022-11-24T14:32:56.867Z,97985.97
2022-11-24T14:35:26.262Z,97985.13
2022-11-24T14:37:53.187Z,97984.28
2022-11-24T14:40:46.621Z,97984.28
2022-11-24T14:43:30.433Z,97988.72
2022-11-24T14:46:09.276Z,97995.69
2022-11-24T14:48:38.202Z,97986.44
2022-11-24T14:51:12.205Z,98000.16
2022-11-24T14:53:46.847Z,97998.34
2022-11-24T14:56:27.246Z,98000.16
2022-11-24T14:58:55.077Z,98001.94
2022-11-24T15:01:26.255Z,98007.22
2022-11-24T15:05:00.996Z,98019.47
2022-11-24T15:07:29.470Z,98024.91
2022-11-24T15:09:58.911Z,98019.00
2022-11-24T15:12:40.975Z,98029.22
2022-11-24T15:17:30.355Z,98039.78
2022-11-24T15:20:07.443Z,98041.59
2022-11-24T15:22:43.569Z,98033.78
2022-11-24T15:25:33.621Z,98044.47
2022-11-24T15:28:00.895Z,98041.81
2022-11-24T15:30:28.406Z,98054.44
2022-11-24T15:32:59.637Z,98048.28
2022-11-24T15:35:29.778Z,98060.69
2022-11-24T15:37:56.637Z,98043.75
2022-11-24T15:40:23.556Z,98064.41
2022-11-24T15:43:04.997Z,98064.53
2022-11-24T15:45:34.224Z,98047.50
2022-11-24T15:50:21.437Z,98067.19
2022-11-24T15:52:48.732Z,98063.81
2022-11-24T15:55:21.660Z,98066.44
2022-11-24T15:57:48.847Z,98069.22
2022-11-24T16:00:21.529Z,98072.69
2022-11-24T16:02:48.566Z,98075.47
2022-11-24T16:05:16.783Z,98068.38
2022-11-24T16:07:44.726Z,98072.81
2022-11-24T16:10:26.847Z,98075.59
2022-11-24T16:12:53.600Z,98078.94
2022-11-24T16:15:23.160Z,98071.63
2022-11-24T16:17:50.038Z,98084.22
2022-11-24T16:20:16.882Z,98082.53
2022-11-24T16:22:43.809Z,98078.34
2022-11-24T16:25:11.146Z,98073.44
2022-11-24T16:27:38.230Z,98081.69
2022-11-24T16:30:06.190Z,98082.53
2022-11-24T16:32:32.843Z,98075.00
2022-11-24T16:34:59.427Z,98081.84
2022-11-24T16:37:26.249Z,98088.81
2022-11-24T16:39:53.060Z,98087.94
2022-11-24T16:42:19.894Z,98088.91
2022-11-24T16:44:46.432Z,98085.09
2022-11-24T16:47:13.042Z,98095.19
2022-11-24T16:49:39.769Z,98091.94
2022-11-24T16:52:06.546Z,98092.63
2022-11-24T16:54:33.492Z,98094.66
2022-11-24T16:57:00.331Z,98103.09
2022-11-24T16:59:26.884Z,98098.88
2022-11-24T17:01:53.591Z,98110.16
2022-11-24T17:04:20.502Z,98111.13
2022-11-24T17:06:47.064Z,98116.31
2022-11-24T17:09:13.615Z,98110.44
2022-11-24T17:11:42.811Z,98126.00
2022-11-24T17:14:10.695Z,98114.97
2022-11-24T17:16:38.452Z,98122.56
2022-11-24T17:19:05.655Z,98130.47
2022-11-24T17:21:32.943Z,98135.75
2022-11-24T17:24:05.152Z,98136.59
2022-11-24T17:26:32.010Z,98131.31
2022-11-24T17:28:58.886Z,98133.94
2022-11-24T17:31:26.498Z,98135.84
2022-11-24T17:33:56.816Z,98137.44
2022-11-24T17:36:24.665Z,98139.34
2022-11-24T17:38:51.404Z,98143.69
2022-11-24T17:41:19.529Z,98138.41
2022-11-24T17:43:50.562Z,98136.84
2022-11-24T17:46:19.066Z,98147.28
2022-11-24T17:48:51.780Z,98154.25
2022-11-24T17:51:20.503Z,98145.84
2022-11-24T17:53:49.380Z,98141.75
2022-11-24T17:56:23.499Z,98158.69
2022-11-24T17:58:54.963Z,98139.22
2022-11-24T18:01:23.043Z,98161.31
2022-11-24T18:03:53.376Z,98164.81
2022-11-24T18:06:35.175Z,98163.97
2022-11-24T18:09:07.697Z,98159.28
2022-11-24T18:11:36.814Z,98173.56
2022-11-24T18:14:04.469Z,98174.53
2022-11-24T18:16:36.506Z,98182.38
2022-11-24T18:19:09.069Z,98176.22
2022-11-24T18:21:37.939Z,98174.44
2022-11-24T18:24:04.619Z,98180.53
2022-11-24T18:28:34.347Z,98183.19
2022-11-24T18:32:11.204Z,98186.78
2022-11-24T18:35:10.319Z,98186.78
2022-11-24T18:37:43.261Z,98187.75
2022-11-24T18:40:10.927Z,98186.78
2022-11-24T18:45:04.263Z,98193.88
2022-11-24T18:47:31.477Z,98193.03
2022-11-24T18:50:00.176Z,98194.84
2022-11-24T18:52:26.899Z,98193.16
2022-11-24T18:56:45.191Z,98202.75
2022-11-24T18:59:11.774Z,98196.63
2022-11-24T19:01:38.502Z,98202.88
2022-11-24T19:04:05.246Z,98198.56
2022-11-24T19:06:37.306Z,98209.00
2022-11-24T19:09:16.388Z,98197.22
2022-11-24T19:11:44.888Z,98218.75
2022-11-24T19:14:14.298Z,98224.97
2022-11-24T19:16:41.778Z,98224.84
2022-11-24T19:19:08.658Z,98225.69
2022-11-24T19:21:38.342Z,98228.31
2022-11-24T19:24:07.194Z,98235.28
2022-11-24T19:26:37.486Z,98235.28
2022-11-24T19:29:05.086Z,98234.47
2022-11-24T19:31:32.307Z,98233.59
2022-11-24T19:33:59.700Z,98234.47
2022-11-24T19:36:26.754Z,98239.88
2022-11-24T19:38:55.826Z,98247.69
2022-11-24T19:41:25.196Z,98239.88
2022-11-24T19:43:54.805Z,98251.28
2022-11-24T19:46:26.560Z,98254.88
2022-11-24T19:48:57.038Z,98249.84
2022-11-24T19:51:30.717Z,98255.13
2022-11-24T19:53:57.504Z,98262.19
2022-11-24T19:56:27.071Z,98252.69
2022-11-24T19:58:55.318Z,98264.13
2022-11-24T20:01:33.896Z,98254.59
2022-11-24T20:05:42.642Z,98262.44
2022-11-24T20:08:09.275Z,98260.75
2022-11-24T20:10:35.891Z,98262.66
2022-11-24T20:13:02.506Z,98269.75
2022-11-24T20:15:32.109Z,98273.34
2022-11-24T20:17:58.955Z,98263.97
2022-11-24T20:20:25.767Z,98278.75
2022-11-24T20:22:52.371Z,98288.47
2022-11-24T20:25:19.352Z,98281.00
2022-11-24T20:27:46.295Z,98285.31
2022-11-24T20:30:13.157Z,98292.16
2022-11-24T20:32:42.795Z,98301.03
2022-11-24T20:35:13.601Z,98291.34
2022-11-24T20:37:47.517Z,98294.09
2022-11-24T20:40:14.238Z,98293.25
2022-11-24T20:42:41.294Z,98297.69
2022-11-24T20:45:08.173Z,98296.84
2022-11-24T20:47:34.860Z,98290.13
2022-11-24T20:50:01.540Z,98303.06
2022-11-24T20:52:30.916Z,98305.00
2022-11-24T20:54:59.088Z,98295.84
2022-11-24T20:57:29.099Z,98308.47
2022-11-24T20:59:55.675Z,98319.03
2022-11-24T21:02:22.627Z,98320.97
2022-11-24T21:07:13.592Z,98307.25
2022-11-24T21:09:45.102Z,98326.97
2022-11-24T21:12:11.820Z,98313.38
2022-11-24T21:14:38.686Z,98320.84
2022-11-24T21:17:08.412Z,98316.13
2022-11-24T21:19:34.924Z,98333.19
2022-11-24T21:22:01.516Z,98328.78
2022-11-24T21:25:10.095Z,98338.47
2022-11-24T21:27:37.022Z,98343.75
2022-11-24T21:30:05.063Z,98343.88
2022-11-24T21:32:32.235Z,98343.06
2022-11-24T21:34:58.834Z,98342.66
2022-11-24T21:37:25.752Z,98355.41
2022-11-24T21:39:52.656Z,98349.28
2022-11-24T21:42:19.460Z,98356.03
2022-11-24T21:44:45.979Z,98351.69
2022-11-24T21:47:12.711Z,98359.53
2022-11-24T21:49:39.271Z,98361.09
2022-11-24T21:52:05.951Z,98360.13
2022-11-24T21:54:32.743Z,98360.03
2022-11-24T21:56:59.614Z,98363.47
2022-11-24T21:59:26.125Z,98363.38
2022-11-24T22:01:52.813Z,98364.22
2022-11-24T22:04:19.413Z,98366.00
2022-11-24T22:06:46.361Z,98356.63
2022-11-24T22:09:17.785Z,98361.72
2022-11-24T22:12:43.250Z,98359.28
2022-11-24T22:15:10.330Z,98363.38
2022-11-24T22:17:36.854Z,98362.41
2022-11-24T22:20:07.362Z,98369.38
2022-11-24T22:22:34.077Z,98361.59
2022-11-24T22:25:00.866Z,98362.41
2022-11-24T22:27:27.874Z,98370.25
2022-11-24T22:29:59.749Z,98360.13
2022-11-24T22:32:29.681Z,98374.78
2022-11-24T22:34:56.227Z,98374.78
2022-11-24T22:37:22.900Z,98369.84
2022-11-24T22:39:49.433Z,98381.84
2022-11-24T22:42:16.073Z,98383.66
2022-11-24T22:44:42.767Z,98379.47
2022-11-24T22:47:09.427Z,98354.78
2022-11-24T22:49:35.937Z,98386.31
2022-11-24T22:52:02.733Z,98384.50
2022-11-24T22:54:29.288Z,98388.94
2022-11-24T22:56:55.838Z,98386.31
2022-11-24T23:01:13.045Z,98396.88
2022-11-24T23:03:40.702Z,98399.50
2022-11-24T23:06:11.463Z,98397.72
2022-11-24T23:08:38.433Z,98380.75
2022-11-24T23:11:10.845Z,98393.28
2022-11-24T23:13:43.976Z,98392.41
2022-11-24T23:16:19.953Z,98389.91
2022-11-24T23:18:53.588Z,98391.47
2022-11-24T23:21:24.708Z,98391.47
2022-11-24T23:23:52.885Z,98392.41
2022-11-24T23:26:25.293Z,98394.03
2022-11-24T23:28:52.377Z,98396.66
2022-11-24T23:31:21.505Z,98393.03
2022-11-24T23:33:48.727Z,98384.75
2022-11-24T23:36:17.878Z,98399.06
2022-11-24T23:41:06.251Z,98401.69
2022-11-24T23:43:34.590Z,98401.59
2022-11-24T23:46:06.371Z,98409.50
2022-11-24T23:49:53.026Z,98401.59
2022-11-24T23:54:28.834Z,98404.97
2022-11-24T23:59:52.112Z,98410.13
